sensor_id;sensor_type;location;lat;lon;timestamp;temperature;humidity
21646;DHT22;10984;45.712;4.800;2022-12-10T00:08:21;3.50;99.90
21646;DHT22;10984;45.712;4.800;2022-12-10T00:11:10;3.50;99.90
21646;DHT22;10984;45.712;4.800;2022-12-10T00:20:32;3.50;99.90
21646;DHT22;10984;45.712;4.800;2022-12-10T07:50:11;2.70;99.90
21646;DHT22;10984;45.712;4.800;2022-12-10T07:52:38;2.70;99.90
21646;DHT22;10984;45.712;4.800;2022-12-10T07:55:04;2.70;99.90
21646;DHT22;10984;45.712;4.800;2022-12-10T07:57:29;2.60;99.90
21646;DHT22;10984;45.712;4.800;2022-12-10T07:59:55;2.70;99.90
21646;DHT22;10984;45.712;4.800;2022-12-10T08:02:21;2.70;99.90
21646;DHT22;10984;45.712;4.800;2022-12-10T08:04:47;2.70;99.90
21646;DHT22;10984;45.712;4.800;2022-12-10T08:07:13;2.70;99.90
21646;DHT22;10984;45.712;4.800;2022-12-10T08:09:38;2.80;99.90
21646;DHT22;10984;45.712;4.800;2022-12-10T08:12:04;2.60;99.90
21646;DHT22;10984;45.712;4.800;2022-12-10T08:14:30;2.60;99.90
21646;DHT22;10984;45.712;4.800;2022-12-10T08:16:55;2.70;99.90
21646;DHT22;10984;45.712;4.800;2022-12-10T08:19:21;2.80;99.90
21646;DHT22;10984;45.712;4.800;2022-12-10T08:21:47;2.80;99.90
21646;DHT22;10984;45.712;4.800;2022-12-10T08:24:12;2.90;99.90
21646;DHT22;10984;45.712;4.800;2022-12-10T08:26:38;2.90;99.90
21646;DHT22;10984;45.712;4.800;2022-12-10T08:29:04;2.90;99.90
21646;DHT22;10984;45.712;4.800;2022-12-10T08:31:29;2.90;99.90
21646;DHT22;10984;45.712;4.800;2022-12-10T08:33:55;2.90;99.90
21646;DHT22;10984;45.712;4.800;2022-12-10T08:36:21;3.00;99.90
21646;DHT22;10984;45.712;4.800;2022-12-10T08:38:47;3.00;99.90
21646;DHT22;10984;45.712;4.800;2022-12-10T08:41:16;3.00;99.90
21646;DHT22;10984;45.712;4.800;2022-12-10T08:43:42;3.00;99.90
21646;DHT22;10984;45.712;4.800;2022-12-10T08:46:08;3.10;99.90
21646;DHT22;10984;45.712;4.800;2022-12-10T08:48:35;3.10;99.90
21646;DHT22;10984;45.712;4.800;2022-12-10T08:51:01;3.00;99.90
21646;DHT22;10984;45.712;4.800;2022-12-10T08:53:27;3.00;99.90
21646;DHT22;10984;45.712;4.800;2022-12-10T08:55:53;3.10;99.90
21646;DHT22;10984;45.712;4.800;2022-12-10T08:58:20;3.00;99.90
21646;DHT22;10984;45.712;4.800;2022-12-10T09:00:46;3.00;99.90
21646;DHT22;10984;45.712;4.800;2022-12-10T09:03:12;3.00;99.90
21646;DHT22;10984;45.712;4.800;2022-12-10T09:05:38;3.10;99.90
21646;DHT22;10984;45.712;4.800;2022-12-10T09:08:04;3.00;99.90
21646;DHT22;10984;45.712;4.800;2022-12-10T09:10:30;3.10;99.90
21646;DHT22;10984;45.712;4.800;2022-12-10T09:12:56;3.00;99.90
21646;DHT22;10984;45.712;4.800;2022-12-10T09:15:22;3.00;99.90
21646;DHT22;10984;45.712;4.800;2022-12-10T09:17:47;2.90;99.90
21646;DHT22;10984;45.712;4.800;2022-12-10T09:20:13;3.00;99.90
21646;DHT22;10984;45.712;4.800;2022-12-10T09:22:39;2.90;99.90
21646;DHT22;10984;45.712;4.800;2022-12-10T09:25:06;2.90;99.90
21646;DHT22;10984;45.712;4.800;2022-12-10T09:27:33;2.90;99.90
21646;DHT22;10984;45.712;4.800;2022-12-10T09:29:59;2.90;99.90
21646;DHT22;10984;45.712;4.800;2022-12-10T09:32:24;2.80;99.90
21646;DHT22;10984;45.712;4.800;2022-12-10T09:35:10;2.80;99.90
21646;DHT22;10984;45.712;4.800;2022-12-10T09:37:36;2.80;99.90
21646;DHT22;10984;45.712;4.800;2022-12-10T09:40:02;2.70;99.90
21646;DHT22;10984;45.712;4.800;2022-12-10T09:51:23;2.70;99.90
21646;DHT22;10984;45.712;4.800;2022-12-10T09:53:52;2.70;99.90
21646;DHT22;10984;45.712;4.800;2022-12-10T09:56:30;2.70;99.90
21646;DHT22;10984;45.712;4.800;2022-12-10T09:59:00;2.70;99.90
21646;DHT22;10984;45.712;4.800;2022-12-10T10:01:29;2.70;99.90
21646;DHT22;10984;45.712;4.800;2022-12-10T10:03:56;2.70;99.90
21646;DHT22;10984;45.712;4.800;2022-12-10T10:06:24;2.80;99.90
21646;DHT22;10984;45.712;4.800;2022-12-10T10:08:53;2.70;99.90
21646;DHT22;10984;45.712;4.800;2022-12-10T10:11:39;2.70;99.90
21646;DHT22;10984;45.712;4.800;2022-12-10T10:17:29;2.80;99.90
21646;DHT22;10984;45.712;4.800;2022-12-10T10:19:56;2.80;99.90
21646;DHT22;10984;45.712;4.800;2022-12-10T10:22:22;2.80;99.90
21646;DHT22;10984;45.712;4.800;2022-12-10T10:24:48;2.80;99.90
21646;DHT22;10984;45.712;4.800;2022-12-10T10:27:16;2.70;99.90
21646;DHT22;10984;45.712;4.800;2022-12-10T10:29:44;2.60;99.90
21646;DHT22;10984;45.712;4.800;2022-12-10T10:35:34;2.70;99.90
21646;DHT22;10984;45.712;4.800;2022-12-10T10:38:15;2.70;99.90
21646;DHT22;10984;45.712;4.800;2022-12-10T10:40:43;2.80;99.90
21646;DHT22;10984;45.712;4.800;2022-12-10T10:52:12;2.70;99.90
21646;DHT22;10984;45.712;4.800;2022-12-10T10:54:42;2.70;99.90
21646;DHT22;10984;45.712;4.800;2022-12-10T10:57:28;2.60;99.90
21646;DHT22;10984;45.712;4.800;2022-12-10T10:59:59;2.60;99.90
21646;DHT22;10984;45.712;4.800;2022-12-10T11:02:44;2.60;99.90
21646;DHT22;10984;45.712;4.800;2022-12-10T11:08:17;2.40;99.90
21646;DHT22;10984;45.712;4.800;2022-12-10T11:11:04;2.40;99.90
21646;DHT22;10984;45.712;4.800;2022-12-10T11:13:33;2.30;99.90
21646;DHT22;10984;45.712;4.800;2022-12-10T11:16:03;2.30;99.90
21646;DHT22;10984;45.712;4.800;2022-12-10T11:18:37;2.40;99.90
21646;DHT22;10984;45.712;4.800;2022-12-10T11:21:22;2.40;99.90
21646;DHT22;10984;45.712;4.800;2022-12-10T11:24:10;2.50;99.90
21646;DHT22;10984;45.712;4.800;2022-12-10T11:47:25;2.50;99.90
21646;DHT22;10984;45.712;4.800;2022-12-10T12:16:24;3.80;99.90
21646;DHT22;10984;45.712;4.800;2022-12-10T12:21:55;3.70;99.90
21646;DHT22;10984;45.712;4.800;2022-12-10T12:24:42;3.50;99.90
21646;DHT22;10984;45.712;4.800;2022-12-10T12:51:21;3.80;99.90
21646;DHT22;10984;45.712;4.800;2022-12-10T12:53:49;3.70;99.90
21646;DHT22;10984;45.712;4.800;2022-12-10T13:08:29;3.40;99.90
21646;DHT22;10984;45.712;4.800;2022-12-10T13:13:42;3.50;99.90
21646;DHT22;10984;45.712;4.800;2022-12-10T13:19:30;3.40;99.90
21646;DHT22;10984;45.712;4.800;2022-12-10T13:25:15;3.30;99.90
21646;DHT22;10984;45.712;4.800;2022-12-10T13:27:53;3.30;99.90
21646;DHT22;10984;45.712;4.800;2022-12-10T13:30:38;3.10;99.90
21646;DHT22;10984;45.712;4.800;2022-12-10T13:33:22;3.20;99.90
21646;DHT22;10984;45.712;4.800;2022-12-10T13:36:06;3.10;99.90
21646;DHT22;10984;45.712;4.800;2022-12-10T13:38:40;3.30;99.90
21646;DHT22;10984;45.712;4.800;2022-12-10T13:41:06;3.20;99.90
21646;DHT22;10984;45.712;4.800;2022-12-10T13:50:18;3.40;99.90
21646;DHT22;10984;45.712;4.800;2022-12-10T14:08:01;3.40;99.90
21646;DHT22;10984;45.712;4.800;2022-12-10T14:10:32;3.30;99.90
21646;DHT22;10984;45.712;4.800;2022-12-10T14:12:59;3.30;99.90
21646;DHT22;10984;45.712;4.800;2022-12-10T14:15:26;3.20;99.90
21646;DHT22;10984;45.712;4.800;2022-12-10T14:18:12;3.30;99.90
21646;DHT22;10984;45.712;4.800;2022-12-10T14:20:43;3.30;99.90
21646;DHT22;10984;45.712;4.800;2022-12-10T14:23:29;3.20;99.90
21646;DHT22;10984;45.712;4.800;2022-12-10T14:29:00;3.20;99.90
21646;DHT22;10984;45.712;4.800;2022-12-10T14:34:32;3.30;99.90
21646;DHT22;10984;45.712;4.800;2022-12-10T14:37:01;3.20;99.90
21646;DHT22;10984;45.712;4.800;2022-12-10T14:39:30;3.20;99.90
21646;DHT22;10984;45.712;4.800;2022-12-10T14:44:45;3.20;99.90
21646;DHT22;10984;45.712;4.800;2022-12-10T14:50:16;3.20;99.90
21646;DHT22;10984;45.712;4.800;2022-12-10T14:52:44;3.20;99.90
21646;DHT22;10984;45.712;4.800;2022-12-10T14:55:29;3.20;99.90
21646;DHT22;10984;45.712;4.800;2022-12-10T14:57:58;3.20;99.90
21646;DHT22;10984;45.712;4.800;2022-12-10T15:00:25;3.20;99.90
21646;DHT22;10984;45.712;4.800;2022-12-10T15:03:10;3.20;99.90
21646;DHT22;10984;45.712;4.800;2022-12-10T15:05:36;3.10;99.90
21646;DHT22;10984;45.712;4.800;2022-12-10T15:08:21;3.10;99.90
21646;DHT22;10984;45.712;4.800;2022-12-10T15:10:52;3.10;99.90
21646;DHT22;10984;45.712;4.800;2022-12-10T15:16:40;3.10;99.90
21646;DHT22;10984;45.712;4.800;2022-12-10T15:22:00;3.00;99.90
21646;DHT22;10984;45.712;4.800;2022-12-10T15:24:35;2.90;99.90
21646;DHT22;10984;45.712;4.800;2022-12-10T15:27:01;2.90;99.90
21646;DHT22;10984;45.712;4.800;2022-12-10T15:37:40;2.90;99.90
21646;DHT22;10984;45.712;4.800;2022-12-10T15:45:49;2.80;99.90
21646;DHT22;10984;45.712;4.800;2022-12-10T15:48:15;2.80;99.90
21646;DHT22;10984;45.712;4.800;2022-12-10T15:50:42;2.80;99.90
21646;DHT22;10984;45.712;4.800;2022-12-10T15:53:28;2.80;99.90
21646;DHT22;10984;45.712;4.800;2022-12-10T15:55:54;2.80;99.90
21646;DHT22;10984;45.712;4.800;2022-12-10T15:58:20;2.80;99.90
21646;DHT22;10984;45.712;4.800;2022-12-10T16:00:46;2.70;99.90
21646;DHT22;10984;45.712;4.800;2022-12-10T16:03:14;2.60;99.90
21646;DHT22;10984;45.712;4.800;2022-12-10T16:05:41;2.60;99.90
21646;DHT22;10984;45.712;4.800;2022-12-10T16:08:27;2.50;99.90
21646;DHT22;10984;45.712;4.800;2022-12-10T16:10:55;2.60;99.90
21646;DHT22;10984;45.712;4.800;2022-12-10T16:13:39;2.50;99.90
21646;DHT22;10984;45.712;4.800;2022-12-10T16:16:09;2.50;99.90
21646;DHT22;10984;45.712;4.800;2022-12-10T16:18:36;2.50;99.90
21646;DHT22;10984;45.712;4.800;2022-12-10T16:21:03;2.50;99.90
21646;DHT22;10984;45.712;4.800;2022-12-10T16:23:29;2.50;99.90
21646;DHT22;10984;45.712;4.800;2022-12-10T16:25:56;2.50;99.90
21646;DHT22;10984;45.712;4.800;2022-12-10T16:28:23;2.50;99.90
21646;DHT22;10984;45.712;4.800;2022-12-10T16:33:33;2.50;99.90
21646;DHT22;10984;45.712;4.800;2022-12-10T16:35:58;2.60;99.90
21646;DHT22;10984;45.712;4.800;2022-12-10T16:38:24;2.50;99.90
21646;DHT22;10984;45.712;4.800;2022-12-10T16:40:50;2.50;99.90
21646;DHT22;10984;45.712;4.800;2022-12-10T16:43:21;2.50;99.90
21646;DHT22;10984;45.712;4.800;2022-12-10T16:45:48;2.50;99.90
21646;DHT22;10984;45.712;4.800;2022-12-10T16:48:14;2.50;99.90
21646;DHT22;10984;45.712;4.800;2022-12-10T16:50:41;2.60;99.90
21646;DHT22;10984;45.712;4.800;2022-12-10T16:56:01;2.50;99.90
21646;DHT22;10984;45.712;4.800;2022-12-10T16:58:27;2.40;99.90
21646;DHT22;10984;45.712;4.800;2022-12-10T17:00:53;2.40;99.90
21646;DHT22;10984;45.712;4.800;2022-12-10T17:03:22;2.40;99.90
21646;DHT22;10984;45.712;4.800;2022-12-10T17:08:33;2.40;99.90
21646;DHT22;10984;45.712;4.800;2022-12-10T17:10:59;2.20;99.90
21646;DHT22;10984;45.712;4.800;2022-12-10T17:13:44;2.30;99.90
21646;DHT22;10984;45.712;4.800;2022-12-10T17:16:13;2.30;99.90
21646;DHT22;10984;45.712;4.800;2022-12-10T17:18:40;2.20;99.90
21646;DHT22;10984;45.712;4.800;2022-12-10T17:21:06;2.20;99.90
21646;DHT22;10984;45.712;4.800;2022-12-10T17:23:31;2.20;99.90
21646;DHT22;10984;45.712;4.800;2022-12-10T17:25:57;2.20;99.90
21646;DHT22;10984;45.712;4.800;2022-12-10T17:28:23;2.20;99.90
21646;DHT22;10984;45.712;4.800;2022-12-10T17:30:49;2.20;99.90
21646;DHT22;10984;45.712;4.800;2022-12-10T17:33:17;2.00;99.90
21646;DHT22;10984;45.712;4.800;2022-12-10T17:35:45;2.00;99.90
21646;DHT22;10984;45.712;4.800;2022-12-10T17:38:29;2.10;99.90
21646;DHT22;10984;45.712;4.800;2022-12-10T17:40:55;2.10;99.90
21646;DHT22;10984;45.712;4.800;2022-12-10T17:43:22;2.10;99.90
21646;DHT22;10984;45.712;4.800;2022-12-10T17:45:48;2.20;99.90
21646;DHT22;10984;45.712;4.800;2022-12-10T17:48:15;2.20;99.90
21646;DHT22;10984;45.712;4.800;2022-12-10T17:50:42;2.10;99.90
21646;DHT22;10984;45.712;4.800;2022-12-10T17:53:10;2.00;99.90
21646;DHT22;10984;45.712;4.800;2022-12-10T17:55:40;2.00;99.90
21646;DHT22;10984;45.712;4.800;2022-12-10T17:58:06;2.00;99.90
21646;DHT22;10984;45.712;4.800;2022-12-10T18:00:34;1.90;99.90
21646;DHT22;10984;45.712;4.800;2022-12-10T18:03:01;1.90;99.90
21646;DHT22;10984;45.712;4.800;2022-12-10T18:05:26;1.90;99.90
21646;DHT22;10984;45.712;4.800;2022-12-10T18:07:53;2.00;99.90
21646;DHT22;10984;45.712;4.800;2022-12-10T18:10:37;2.00;99.90
21646;DHT22;10984;45.712;4.800;2022-12-10T18:13:04;2.00;99.90
21646;DHT22;10984;45.712;4.800;2022-12-10T18:15:30;2.00;99.90
21646;DHT22;10984;45.712;4.800;2022-12-10T18:17:57;2.00;99.90
21646;DHT22;10984;45.712;4.800;2022-12-10T18:20:42;1.90;99.90
21646;DHT22;10984;45.712;4.800;2022-12-10T18:23:10;2.00;99.90
21646;DHT22;10984;45.712;4.800;2022-12-10T18:25:37;1.90;99.90
21646;DHT22;10984;45.712;4.800;2022-12-10T18:28:14;2.00;99.90
21646;DHT22;10984;45.712;4.800;2022-12-10T18:30:53;1.90;99.90
21646;DHT22;10984;45.712;4.800;2022-12-10T18:33:40;1.90;99.90
21646;DHT22;10984;45.712;4.800;2022-12-10T18:38:54;1.90;99.90
21646;DHT22;10984;45.712;4.800;2022-12-10T18:41:20;1.90;99.90
21646;DHT22;10984;45.712;4.800;2022-12-10T18:43:46;1.90;99.90
21646;DHT22;10984;45.712;4.800;2022-12-10T18:46:30;1.90;99.90
21646;DHT22;10984;45.712;4.800;2022-12-10T18:49:00;1.90;99.90
21646;DHT22;10984;45.712;4.800;2022-12-10T18:51:25;1.80;99.90
21646;DHT22;10984;45.712;4.800;2022-12-10T18:53:51;1.90;99.90
21646;DHT22;10984;45.712;4.800;2022-12-10T18:56:20;1.90;99.90
21646;DHT22;10984;45.712;4.800;2022-12-10T18:58:46;1.90;99.90
21646;DHT22;10984;45.712;4.800;2022-12-10T19:01:14;1.90;99.90
21646;DHT22;10984;45.712;4.800;2022-12-10T19:03:40;1.80;99.90
21646;DHT22;10984;45.712;4.800;2022-12-10T19:06:12;1.80;99.90
21646;DHT22;10984;45.712;4.800;2022-12-10T19:08:38;1.80;99.90
21646;DHT22;10984;45.712;4.800;2022-12-10T19:11:04;1.80;99.90
21646;DHT22;10984;45.712;4.800;2022-12-10T19:13:30;1.70;99.90
21646;DHT22;10984;45.712;4.800;2022-12-10T19:15:55;1.80;99.90
21646;DHT22;10984;45.712;4.800;2022-12-10T19:18:21;1.80;99.90
21646;DHT22;10984;45.712;4.800;2022-12-10T19:20:47;1.80;99.90
21646;DHT22;10984;45.712;4.800;2022-12-10T19:23:12;1.80;99.90
21646;DHT22;10984;45.712;4.800;2022-12-10T19:25:38;1.80;99.90
21646;DHT22;10984;45.712;4.800;2022-12-10T19:28:04;1.80;99.90
21646;DHT22;10984;45.712;4.800;2022-12-10T19:30:30;1.80;99.90
21646;DHT22;10984;45.712;4.800;2022-12-10T19:32:56;1.70;99.90
21646;DHT22;10984;45.712;4.800;2022-12-10T19:35:24;1.60;99.90
21646;DHT22;10984;45.712;4.800;2022-12-10T19:38:11;1.60;99.90
21646;DHT22;10984;45.712;4.800;2022-12-10T19:40:37;1.40;99.90
21646;DHT22;10984;45.712;4.800;2022-12-10T19:43:04;1.40;99.90
21646;DHT22;10984;45.712;4.800;2022-12-10T19:45:30;1.30;99.90
21646;DHT22;10984;45.712;4.800;2022-12-10T19:47:56;1.30;99.90
21646;DHT22;10984;45.712;4.800;2022-12-10T19:50:29;1.20;99.90
21646;DHT22;10984;45.712;4.800;2022-12-10T19:52:55;1.10;99.90
21646;DHT22;10984;45.712;4.800;2022-12-10T19:55:21;1.00;99.90
21646;DHT22;10984;45.712;4.800;2022-12-10T19:57:49;1.00;99.90
21646;DHT22;10984;45.712;4.800;2022-12-10T20:00:18;0.90;99.90
21646;DHT22;10984;45.712;4.800;2022-12-10T20:02:45;0.90;99.90
21646;DHT22;10984;45.712;4.800;2022-12-10T20:05:11;0.90;99.90
21646;DHT22;10984;45.712;4.800;2022-12-10T20:07:37;0.90;99.90
21646;DHT22;10984;45.712;4.800;2022-12-10T20:10:03;0.70;99.90
21646;DHT22;10984;45.712;4.800;2022-12-10T20:12:30;0.70;99.90
21646;DHT22;10984;45.712;4.800;2022-12-10T20:14:55;0.60;99.90
21646;DHT22;10984;45.712;4.800;2022-12-10T20:17:21;0.60;99.90
21646;DHT22;10984;45.712;4.800;2022-12-10T20:19:50;0.60;99.90
21646;DHT22;10984;45.712;4.800;2022-12-10T20:22:16;0.60;99.90
21646;DHT22;10984;45.712;4.800;2022-12-10T20:24:43;0.50;99.90
21646;DHT22;10984;45.712;4.800;2022-12-10T20:27:28;0.40;99.90
21646;DHT22;10984;45.712;4.800;2022-12-10T20:29:54;0.50;99.90
21646;DHT22;10984;45.712;4.800;2022-12-10T20:32:20;0.50;99.90
21646;DHT22;10984;45.712;4.800;2022-12-10T20:34:46;0.50;99.90
21646;DHT22;10984;45.712;4.800;2022-12-10T20:37:12;0.50;99.90
21646;DHT22;10984;45.712;4.800;2022-12-10T20:39:37;0.40;99.90
21646;DHT22;10984;45.712;4.800;2022-12-10T20:42:03;0.40;99.90
21646;DHT22;10984;45.712;4.800;2022-12-10T20:44:29;0.40;99.90
21646;DHT22;10984;45.712;4.800;2022-12-10T20:46:56;0.30;99.90
21646;DHT22;10984;45.712;4.800;2022-12-10T20:49:26;0.40;99.90
21646;DHT22;10984;45.712;4.800;2022-12-10T20:51:52;0.40;99.90
21646;DHT22;10984;45.712;4.800;2022-12-10T20:54:18;0.40;99.90
21646;DHT22;10984;45.712;4.800;2022-12-10T20:56:44;0.40;99.90
21646;DHT22;10984;45.712;4.800;2022-12-10T20:59:13;0.30;99.90
21646;DHT22;10984;45.712;4.800;2022-12-10T21:01:39;0.20;99.90
21646;DHT22;10984;45.712;4.800;2022-12-10T21:04:04;0.20;99.90
21646;DHT22;10984;45.712;4.800;2022-12-10T21:06:31;0.10;99.90
21646;DHT22;10984;45.712;4.800;2022-12-10T21:09:15;0.10;99.90
21646;DHT22;10984;45.712;4.800;2022-12-10T21:11:41;0.10;99.90
21646;DHT22;10984;45.712;4.800;2022-12-10T21:14:06;0.10;99.90
21646;DHT22;10984;45.712;4.800;2022-12-10T21:16:32;0.20;99.90
21646;DHT22;10984;45.712;4.800;2022-12-10T21:18:58;0.20;99.90
21646;DHT22;10984;45.712;4.800;2022-12-10T21:21:25;0.10;99.90
21646;DHT22;10984;45.712;4.800;2022-12-10T21:24:09;0.10;99.90
21646;DHT22;10984;45.712;4.800;2022-12-10T21:26:35;0.10;99.90
21646;DHT22;10984;45.712;4.800;2022-12-10T21:29:00;0.10;99.90
21646;DHT22;10984;45.712;4.800;2022-12-10T21:31:27;0.20;99.90
21646;DHT22;10984;45.712;4.800;2022-12-10T21:33:53;0.20;99.90
21646;DHT22;10984;45.712;4.800;2022-12-10T21:36:20;0.20;99.90
21646;DHT22;10984;45.712;4.800;2022-12-10T21:38:46;0.30;99.90
21646;DHT22;10984;45.712;4.800;2022-12-10T21:41:18;0.20;99.90
21646;DHT22;10984;45.712;4.800;2022-12-10T21:44:03;0.30;99.90
21646;DHT22;10984;45.712;4.800;2022-12-10T21:46:29;0.30;99.90
21646;DHT22;10984;45.712;4.800;2022-12-10T21:48:55;0.40;99.90
21646;DHT22;10984;45.712;4.800;2022-12-10T21:51:20;0.40;99.90
21646;DHT22;10984;45.712;4.800;2022-12-10T21:53:46;0.40;99.90
21646;DHT22;10984;45.712;4.800;2022-12-10T21:56:12;0.40;99.90
21646;DHT22;10984;45.712;4.800;2022-12-10T21:58:38;0.40;99.90
21646;DHT22;10984;45.712;4.800;2022-12-10T22:01:05;0.40;99.90
21646;DHT22;10984;45.712;4.800;2022-12-10T22:03:32;0.40;99.90
21646;DHT22;10984;45.712;4.800;2022-12-10T22:05:57;0.40;99.90
21646;DHT22;10984;45.712;4.800;2022-12-10T22:08:23;0.30;99.90
21646;DHT22;10984;45.712;4.800;2022-12-10T22:10:49;0.30;99.90
21646;DHT22;10984;45.712;4.800;2022-12-10T22:13:15;0.30;99.90
21646;DHT22;10984;45.712;4.800;2022-12-10T22:15:42;0.30;99.90
21646;DHT22;10984;45.712;4.800;2022-12-10T22:18:09;0.20;99.90
21646;DHT22;10984;45.712;4.800;2022-12-10T22:20:36;0.20;99.90
21646;DHT22;10984;45.712;4.800;2022-12-10T22:23:03;0.10;99.90
21646;DHT22;10984;45.712;4.800;2022-12-10T22:25:29;0.00;99.90
21646;DHT22;10984;45.712;4.800;2022-12-10T22:27:54;0.00;99.90
21646;DHT22;10984;45.712;4.800;2022-12-10T22:30:20;0.00;99.90
21646;DHT22;10984;45.712;4.800;2022-12-10T22:32:46;0.00;99.90
21646;DHT22;10984;45.712;4.800;2022-12-10T22:35:12;0.00;99.90
21646;DHT22;10984;45.712;4.800;2022-12-10T22:37:38;0.00;99.90
21646;DHT22;10984;45.712;4.800;2022-12-10T22:40:05;0.00;99.90
21646;DHT22;10984;45.712;4.800;2022-12-10T22:42:32;0.00;99.90
21646;DHT22;10984;45.712;4.800;2022-12-10T22:44:58;-0.10;99.90
21646;DHT22;10984;45.712;4.800;2022-12-10T22:47:26;-0.10;99.90
21646;DHT22;10984;45.712;4.800;2022-12-10T22:49:52;-0.10;99.90
21646;DHT22;10984;45.712;4.800;2022-12-10T22:52:18;-0.10;99.90
21646;DHT22;10984;45.712;4.800;2022-12-10T22:54:43;-0.10;99.90
21646;DHT22;10984;45.712;4.800;2022-12-10T22:57:09;-0.10;99.90
21646;DHT22;10984;45.712;4.800;2022-12-10T22:59:35;-0.10;99.90
21646;DHT22;10984;45.712;4.800;2022-12-10T23:02:02;-0.20;99.90
21646;DHT22;10984;45.712;4.800;2022-12-10T23:04:28;-0.30;99.90
21646;DHT22;10984;45.712;4.800;2022-12-10T23:06:54;-0.20;99.90
21646;DHT22;10984;45.712;4.800;2022-12-10T23:09:20;-0.30;99.90
21646;DHT22;10984;45.712;4.800;2022-12-10T23:11:46;-0.30;99.90
21646;DHT22;10984;45.712;4.800;2022-12-10T23:14:31;-0.30;99.90
21646;DHT22;10984;45.712;4.800;2022-12-10T23:16:57;-0.30;99.90
21646;DHT22;10984;45.712;4.800;2022-12-10T23:19:23;-0.30;99.90
21646;DHT22;10984;45.712;4.800;2022-12-10T23:21:49;-0.40;99.90
21646;DHT22;10984;45.712;4.800;2022-12-10T23:24:15;-0.40;99.90
21646;DHT22;10984;45.712;4.800;2022-12-10T23:26:40;-0.40;99.90
21646;DHT22;10984;45.712;4.800;2022-12-10T23:29:06;-0.50;99.90
21646;DHT22;10984;45.712;4.800;2022-12-10T23:31:31;-0.50;99.90
21646;DHT22;10984;45.712;4.800;2022-12-10T23:33:57;-0.50;99.90
21646;DHT22;10984;45.712;4.800;2022-12-10T23:36:23;-0.60;99.90
21646;DHT22;10984;45.712;4.800;2022-12-10T23:38:48;-0.60;99.90
21646;DHT22;10984;45.712;4.800;2022-12-10T23:41:14;-0.60;99.90
21646;DHT22;10984;45.712;4.800;2022-12-10T23:43:39;-0.70;99.90
21646;DHT22;10984;45.712;4.800;2022-12-10T23:46:06;-0.70;99.90
21646;DHT22;10984;45.712;4.800;2022-12-10T23:48:31;-0.60;99.90
21646;DHT22;10984;45.712;4.800;2022-12-10T23:50:58;-0.60;99.90
21646;DHT22;10984;45.712;4.800;2022-12-10T23:53:24;-0.50;99.90
21646;DHT22;10984;45.712;4.800;2022-12-10T23:55:50;-0.40;99.90
21646;DHT22;10984;45.712;4.800;2022-12-10T23:58:15;-0.40;99.90
